createdAt,value
2022-08-31T00:00:14.544Z,6.00
2022-08-31T00:02:59.845Z,5.70
2022-08-31T00:05:26.896Z,5.60
2022-08-31T00:07:55.618Z,5.53
2022-08-31T00:10:32.365Z,6.27
2022-08-31T00:13:07.000Z,5.77
2022-08-31T00:15:35.533Z,5.97
2022-08-31T00:18:03.124Z,5.90
2022-08-31T00:20:33.363Z,5.20
2022-08-31T00:23:12.842Z,5.53
2022-08-31T00:25:44.067Z,5.60
2022-08-31T00:28:12.785Z,5.50
2022-08-31T00:30:41.543Z,6.10
2022-08-31T00:33:09.461Z,5.37
2022-08-31T00:35:38.157Z,5.50
2022-08-31T00:38:06.325Z,5.40
2022-08-31T00:40:44.375Z,5.80
2022-08-31T00:43:40.914Z,6.00
2022-08-31T00:46:10.555Z,5.70
2022-08-31T00:49:09.931Z,5.57
2022-08-31T00:51:50.319Z,6.10
2022-08-31T00:54:22.815Z,5.87
2022-08-31T00:56:50.556Z,4.93
2022-08-31T00:59:20.497Z,5.20
2022-08-31T01:01:47.536Z,5.47
2022-08-31T01:04:15.161Z,6.10
2022-08-31T01:06:42.597Z,6.20
2022-08-31T01:09:10.664Z,5.60
2022-08-31T01:11:40.637Z,5.83
2022-08-31T01:14:09.124Z,5.83
2022-08-31T01:16:43.931Z,5.40
2022-08-31T01:19:31.331Z,5.53
2022-08-31T01:22:17.378Z,5.50
2022-08-31T01:24:47.480Z,5.07
2022-08-31T01:27:22.226Z,5.33
2022-08-31T01:29:49.298Z,5.20
2022-08-31T01:32:16.687Z,4.70
2022-08-31T01:34:43.610Z,5.50
2022-08-31T01:37:11.111Z,4.87
2022-08-31T01:39:40.720Z,4.60
2022-08-31T01:42:08.793Z,4.80
2022-08-31T01:44:35.714Z,4.73
2022-08-31T01:47:02.964Z,5.03
2022-08-31T01:49:30.064Z,4.50
2022-08-31T01:51:57.091Z,5.20
2022-08-31T01:54:25.655Z,4.73
2022-08-31T01:56:53.710Z,4.90
2022-08-31T01:59:22.635Z,4.47
2022-08-31T02:01:53.699Z,5.23
2022-08-31T02:04:24.798Z,4.57
2022-08-31T02:06:55.026Z,4.40
2022-08-31T02:09:22.962Z,4.90
2022-08-31T02:11:50.295Z,4.30
2022-08-31T02:14:18.476Z,5.17
2022-08-31T02:16:46.487Z,4.60
2022-08-31T02:19:13.609Z,4.60
2022-08-31T02:21:41.274Z,4.20
2022-08-31T02:24:11.320Z,4.57
2022-08-31T02:26:39.636Z,5.17
2022-08-31T02:29:07.704Z,4.43
2022-08-31T02:31:36.072Z,4.87
2022-08-31T02:34:03.603Z,5.00
2022-08-31T02:36:32.303Z,4.77
2022-08-31T02:39:03.870Z,5.70
2022-08-31T02:41:33.012Z,5.10
2022-08-31T02:43:59.947Z,4.90
2022-08-31T02:46:26.965Z,4.50
2022-08-31T02:48:53.994Z,4.80
2022-08-31T02:51:20.927Z,5.30
2022-08-31T02:53:47.983Z,5.33
2022-08-31T02:56:15.456Z,5.37
2022-08-31T02:58:43.519Z,5.57
2022-08-31T03:01:11.169Z,5.50
2022-08-31T03:03:40.071Z,5.37
2022-08-31T03:06:07.838Z,5.60
2022-08-31T03:08:34.787Z,5.10
2022-08-31T03:11:01.834Z,5.60
2022-08-31T03:13:30.112Z,5.70
2022-08-31T03:15:57.934Z,5.50
2022-08-31T03:18:25.284Z,6.47
2022-08-31T03:20:52.246Z,6.43
2022-08-31T03:23:19.387Z,7.17
2022-08-31T03:25:46.458Z,6.63
2022-08-31T03:28:13.431Z,6.37
2022-08-31T03:30:40.749Z,7.20
2022-08-31T03:33:08.783Z,5.63
2022-08-31T03:35:36.145Z,7.47
2022-08-31T03:38:05.377Z,6.90
2022-08-31T03:40:32.520Z,6.90
2022-08-31T03:42:59.540Z,6.60
2022-08-31T03:45:27.875Z,6.37
2022-08-31T03:47:55.154Z,6.53
2022-08-31T03:50:22.413Z,6.83
2022-08-31T03:52:49.776Z,7.07
2022-08-31T03:55:17.085Z,6.97
2022-08-31T03:57:44.457Z,6.60
2022-08-31T04:00:12.271Z,6.80
2022-08-31T04:02:39.674Z,7.17
2022-08-31T04:05:08.459Z,6.93
2022-08-31T04:07:42.218Z,6.93
2022-08-31T04:10:13.243Z,7.00
2022-08-31T04:12:41.425Z,7.17
2022-08-31T04:15:10.319Z,6.60
2022-08-31T04:17:37.886Z,7.20
2022-08-31T04:20:06.771Z,7.70
2022-08-31T04:22:33.806Z,6.57
2022-08-31T04:25:00.756Z,6.67
2022-08-31T04:27:27.766Z,6.37
2022-08-31T04:29:54.964Z,6.97
2022-08-31T04:32:21.899Z,7.10
2022-08-31T04:34:48.916Z,6.10
2022-08-31T04:37:23.284Z,6.80
2022-08-31T04:39:52.291Z,6.90
2022-08-31T04:42:19.561Z,7.17
2022-08-31T04:44:47.055Z,7.50
2022-08-31T04:47:14.130Z,7.03
2022-08-31T04:49:41.061Z,8.40
2022-08-31T04:52:08.330Z,8.33
2022-08-31T04:54:35.410Z,7.13
2022-08-31T04:57:02.418Z,7.20
2022-08-31T04:59:29.498Z,8.10
2022-08-31T05:01:56.585Z,6.40
2022-08-31T05:04:29.010Z,7.10
2022-08-31T05:06:56.605Z,6.77
2022-08-31T05:09:24.444Z,7.00
2022-08-31T05:11:55.574Z,7.33
2022-08-31T05:14:23.681Z,7.30
2022-08-31T05:16:52.159Z,6.60
2022-08-31T05:19:20.417Z,6.57
2022-08-31T05:21:47.746Z,6.07
2022-08-31T05:24:22.594Z,6.37
2022-08-31T05:26:52.996Z,5.57
2022-08-31T05:29:23.862Z,6.60
2022-08-31T05:31:52.619Z,7.17
2022-08-31T05:34:21.755Z,7.20
2022-08-31T05:36:55.916Z,6.27
2022-08-31T05:39:24.040Z,6.87
2022-08-31T05:41:51.397Z,6.53
2022-08-31T05:44:21.149Z,6.80
2022-08-31T05:46:52.180Z,6.33
2022-08-31T05:49:21.835Z,6.90
2022-08-31T05:51:48.804Z,6.70
2022-08-31T05:54:17.563Z,6.90
2022-08-31T05:56:45.892Z,6.90
2022-08-31T05:59:14.595Z,6.83
2022-08-31T06:01:42.612Z,7.43
2022-08-31T06:04:10.578Z,6.80
2022-08-31T06:06:38.256Z,6.63
2022-08-31T06:09:07.612Z,6.77
2022-08-31T06:11:37.399Z,6.40
2022-08-31T06:14:06.123Z,7.63
2022-08-31T06:16:35.880Z,7.57
2022-08-31T06:19:07.201Z,6.67
2022-08-31T06:21:38.915Z,7.57
2022-08-31T06:24:16.935Z,8.27
2022-08-31T06:26:44.171Z,8.60
2022-08-31T06:29:11.620Z,8.27
2022-08-31T06:31:47.647Z,7.27
2022-08-31T06:34:17.523Z,7.60
2022-08-31T06:36:44.959Z,7.90
2022-08-31T06:39:14.964Z,7.77
2022-08-31T06:41:42.055Z,7.40
2022-08-31T06:44:12.234Z,7.30
2022-08-31T06:46:41.301Z,7.60
2022-08-31T06:49:10.267Z,7.60
2022-08-31T06:51:38.403Z,7.43
2022-08-31T06:54:28.365Z,7.20
2022-08-31T06:56:59.932Z,5.90
2022-08-31T06:59:29.765Z,6.33
2022-08-31T07:01:59.641Z,6.43
2022-08-31T07:04:32.573Z,5.80
2022-08-31T07:06:59.588Z,4.40
2022-08-31T07:09:26.655Z,4.10
2022-08-31T07:11:54.282Z,4.50
2022-08-31T07:14:25.172Z,4.80
2022-08-31T07:16:56.620Z,4.33
2022-08-31T07:19:25.659Z,4.30
2022-08-31T07:21:56.590Z,4.77
2022-08-31T07:24:31.515Z,4.83
2022-08-31T07:27:11.925Z,4.60
2022-08-31T07:29:40.706Z,4.53
2022-08-31T07:32:14.606Z,4.30
2022-08-31T07:34:41.839Z,4.50
2022-08-31T07:37:27.083Z,4.50
2022-08-31T07:40:13.506Z,4.27
2022-08-31T07:42:44.490Z,4.90
2022-08-31T07:45:29.088Z,3.67
2022-08-31T07:47:59.812Z,4.23
2022-08-31T07:50:30.803Z,4.00
2022-08-31T07:52:58.869Z,4.63
2022-08-31T07:55:29.150Z,4.30
2022-08-31T07:57:56.862Z,4.60
2022-08-31T08:00:30.662Z,4.60
2022-08-31T08:03:07.395Z,5.53
2022-08-31T08:05:38.852Z,5.17
2022-08-31T08:08:12.217Z,5.50
2022-08-31T08:10:46.792Z,5.90
2022-08-31T08:13:20.499Z,5.43
2022-08-31T08:15:52.042Z,5.00
2022-08-31T08:18:20.076Z,5.40
2022-08-31T08:20:48.047Z,6.10
2022-08-31T08:23:27.773Z,5.70
2022-08-31T08:25:55.934Z,5.27
2022-08-31T08:28:46.200Z,6.13
2022-08-31T08:31:18.191Z,5.63
2022-08-31T08:33:46.334Z,5.70
2022-08-31T08:36:18.306Z,5.30
2022-08-31T08:38:50.574Z,5.80
2022-08-31T08:41:23.555Z,5.73
2022-08-31T08:43:57.121Z,5.77
2022-08-31T08:46:40.245Z,5.57
2022-08-31T08:49:29.337Z,6.17
2022-08-31T08:52:05.388Z,5.93
2022-08-31T08:54:38.951Z,6.70
2022-08-31T08:57:21.581Z,6.30
2022-08-31T08:59:51.076Z,6.30
2022-08-31T09:02:38.034Z,6.80
2022-08-31T09:05:41.426Z,6.97
2022-08-31T09:08:33.852Z,7.40
2022-08-31T09:11:17.874Z,8.43
2022-08-31T09:14:15.382Z,8.17
2022-08-31T09:16:50.565Z,7.90
2022-08-31T09:19:20.432Z,8.60
2022-08-31T09:21:53.151Z,9.13
2022-08-31T09:24:27.491Z,8.20
2022-08-31T09:27:11.382Z,9.47
2022-08-31T09:29:45.007Z,10.50
2022-08-31T09:32:24.854Z,8.80
2022-08-31T09:35:04.267Z,9.47
2022-08-31T09:37:55.559Z,9.50
2022-08-31T09:40:41.730Z,8.90
2022-08-31T09:43:36.255Z,9.70
2022-08-31T09:46:09.561Z,9.77
2022-08-31T09:48:58.321Z,10.43
2022-08-31T09:51:28.255Z,10.07
2022-08-31T09:54:47.175Z,10.73
2022-08-31T09:57:15.119Z,10.40
2022-08-31T09:59:49.329Z,10.53
2022-08-31T10:02:23.114Z,10.20
2022-08-31T10:05:01.391Z,9.03
2022-08-31T10:07:53.568Z,7.53
2022-08-31T10:10:31.461Z,6.30
2022-08-31T10:13:22.083Z,7.40
2022-08-31T10:16:06.978Z,6.63
2022-08-31T10:18:45.022Z,7.40
2022-08-31T10:21:30.110Z,6.40
2022-08-31T10:24:28.173Z,5.03
2022-08-31T10:27:16.824Z,5.07
2022-08-31T10:30:17.041Z,4.30
2022-08-31T10:33:04.956Z,4.23
2022-08-31T10:35:51.324Z,4.60
2022-08-31T10:38:44.177Z,4.20
2022-08-31T10:41:17.283Z,5.00
2022-08-31T10:43:49.010Z,4.73
2022-08-31T10:46:18.886Z,5.97
2022-08-31T10:48:53.158Z,5.70
2022-08-31T10:51:51.098Z,6.87
2022-08-31T10:54:55.604Z,6.13
2022-08-31T10:57:51.128Z,4.70
2022-08-31T11:00:45.697Z,4.50
2022-08-31T11:03:35.637Z,4.80
2022-08-31T11:06:34.216Z,4.50
2022-08-31T11:09:20.100Z,4.80
2022-08-31T11:11:57.464Z,4.00
2022-08-31T11:14:50.076Z,4.67
2022-08-31T11:17:50.198Z,4.87
2022-08-31T11:20:55.634Z,4.70
2022-08-31T11:24:07.801Z,4.83
2022-08-31T11:27:17.323Z,5.30
2022-08-31T11:30:29.033Z,5.10
2022-08-31T11:33:00.284Z,5.73
2022-08-31T11:35:48.126Z,6.23
2022-08-31T11:38:56.541Z,6.40
2022-08-31T11:41:36.239Z,6.87
2022-08-31T11:44:06.065Z,6.47
2022-08-31T11:46:34.266Z,6.70
2022-08-31T11:49:01.314Z,7.13
2022-08-31T11:51:43.359Z,6.83
2022-08-31T11:54:42.087Z,5.80
2022-08-31T11:57:17.801Z,5.50
2022-08-31T11:59:53.536Z,4.60
2022-08-31T12:02:23.160Z,4.27
2022-08-31T12:04:53.427Z,4.77
2022-08-31T12:07:34.574Z,4.60
2022-08-31T12:10:34.416Z,4.97
2022-08-31T12:13:48.992Z,4.80
2022-08-31T12:16:53.083Z,4.60
2022-08-31T12:20:01.970Z,4.60
2022-08-31T12:23:37.696Z,5.73
2022-08-31T12:26:41.767Z,5.90
2022-08-31T12:29:40.751Z,5.20
2022-08-31T12:32:31.450Z,6.47
2022-08-31T12:35:26.616Z,5.60
2022-08-31T12:37:59.610Z,6.33
2022-08-31T12:40:33.053Z,5.53
2022-08-31T12:43:43.179Z,5.30
2022-08-31T12:46:22.015Z,5.00
2022-08-31T12:49:29.834Z,5.40
2022-08-31T12:52:55.133Z,5.77
2022-08-31T12:55:43.274Z,4.90
2022-08-31T12:58:41.383Z,4.27
2022-08-31T13:01:13.733Z,4.43
2022-08-31T13:03:53.943Z,4.80
2022-08-31T13:06:33.426Z,4.80
2022-08-31T13:09:07.054Z,5.10
2022-08-31T13:11:44.443Z,5.30
2022-08-31T13:14:26.785Z,5.40
2022-08-31T13:17:05.719Z,4.80
2022-08-31T13:19:35.239Z,5.30
2022-08-31T13:22:16.949Z,5.67
2022-08-31T13:24:51.364Z,6.33
2022-08-31T13:27:30.308Z,6.33
2022-08-31T13:30:18.472Z,7.20
2022-08-31T13:32:52.464Z,7.50
2022-08-31T13:35:25.111Z,7.50
2022-08-31T13:38:04.757Z,8.27
2022-08-31T13:40:39.440Z,7.80
2022-08-31T13:43:10.058Z,8.03
2022-08-31T13:45:57.807Z,8.17
2022-08-31T13:48:38.133Z,7.97
2022-08-31T13:51:17.887Z,7.90
2022-08-31T13:53:48.191Z,6.90
2022-08-31T13:56:49.008Z,6.90
2022-08-31T13:59:24.586Z,7.40
2022-08-31T14:02:36.458Z,6.93
2022-08-31T14:05:08.185Z,6.70
2022-08-31T14:07:43.856Z,6.87
2022-08-31T14:10:31.864Z,7.70
2022-08-31T14:13:02.597Z,6.23
2022-08-31T14:15:56.275Z,6.83
2022-08-31T14:18:41.103Z,7.07
2022-08-31T14:21:20.445Z,6.80
2022-08-31T14:24:02.443Z,7.77
2022-08-31T14:26:41.615Z,6.83
2022-08-31T14:29:18.602Z,7.33
2022-08-31T14:31:51.912Z,7.50
2022-08-31T14:34:26.055Z,6.40
2022-08-31T14:37:06.655Z,7.70
2022-08-31T14:39:42.569Z,8.63
2022-08-31T14:42:31.067Z,7.60
2022-08-31T14:45:09.392Z,8.17
2022-08-31T14:47:44.070Z,8.67
2022-08-31T14:50:18.140Z,8.70
2022-08-31T14:52:55.416Z,9.10
2022-08-31T14:55:28.569Z,9.43
2022-08-31T14:58:05.179Z,9.50
2022-08-31T15:00:34.581Z,9.33
2022-08-31T15:03:02.484Z,9.73
2022-08-31T15:05:29.615Z,8.50
2022-08-31T15:07:56.929Z,10.00
2022-08-31T15:10:27.903Z,9.60
2022-08-31T15:12:55.704Z,10.20
2022-08-31T15:15:22.726Z,9.20
2022-08-31T15:17:51.952Z,9.97
2022-08-31T15:20:23.364Z,8.13
2022-08-31T15:22:50.857Z,8.80
2022-08-31T15:25:20.704Z,9.37
2022-08-31T15:27:48.461Z,9.60
2022-08-31T15:30:19.982Z,8.60
2022-08-31T15:32:48.865Z,8.27
2022-08-31T15:35:23.374Z,8.60
2022-08-31T15:37:58.874Z,8.87
2022-08-31T15:40:35.480Z,8.90
2022-08-31T15:43:09.396Z,8.13
2022-08-31T15:45:37.197Z,7.03
2022-08-31T15:48:23.610Z,7.33
2022-08-31T15:50:58.884Z,7.40
2022-08-31T15:53:30.303Z,7.47
2022-08-31T15:56:06.193Z,6.97
2022-08-31T15:58:35.498Z,7.03
2022-08-31T16:01:05.443Z,7.50
2022-08-31T16:03:35.175Z,7.30
2022-08-31T16:06:04.210Z,6.03
2022-08-31T16:08:31.324Z,6.30
2022-08-31T16:10:59.322Z,7.10
2022-08-31T16:13:26.298Z,7.37
2022-08-31T16:15:53.383Z,6.37
2022-08-31T16:18:22.143Z,6.90
2022-08-31T16:20:51.789Z,7.20
2022-08-31T16:23:19.426Z,6.37
2022-08-31T16:25:48.945Z,6.60
2022-08-31T16:28:19.521Z,6.60
2022-08-31T16:30:47.028Z,6.03
2022-08-31T16:33:14.117Z,6.43
2022-08-31T16:35:44.916Z,6.77
2022-08-31T16:38:13.081Z,6.90
2022-08-31T16:40:42.020Z,6.63
2022-08-31T16:43:09.607Z,6.73
2022-08-31T16:45:41.177Z,6.37
2022-08-31T16:48:30.147Z,6.70
2022-08-31T16:51:02.083Z,6.80
2022-08-31T16:53:30.248Z,6.77
2022-08-31T16:55:59.345Z,6.40
2022-08-31T16:58:50.645Z,6.77
2022-08-31T17:01:21.376Z,6.47
2022-08-31T17:03:57.884Z,6.67
2022-08-31T17:06:28.905Z,6.80
2022-08-31T17:08:58.526Z,6.43
2022-08-31T17:11:57.706Z,5.87
2022-08-31T17:14:35.570Z,6.23
2022-08-31T17:17:07.234Z,6.70
2022-08-31T17:19:36.588Z,7.10
2022-08-31T17:22:06.018Z,6.63
2022-08-31T17:24:38.763Z,7.13
2022-08-31T17:27:09.467Z,7.17
2022-08-31T17:29:43.682Z,8.03
2022-08-31T17:32:15.130Z,6.80
2022-08-31T17:34:43.171Z,6.20
2022-08-31T17:37:17.519Z,6.73
2022-08-31T17:39:45.990Z,7.70
2022-08-31T17:42:19.832Z,5.60
2022-08-31T17:44:50.362Z,6.67
2022-08-31T17:47:18.267Z,6.87
2022-08-31T17:49:46.742Z,5.60
2022-08-31T17:52:16.704Z,5.87
2022-08-31T17:54:45.822Z,6.53
2022-08-31T17:57:15.675Z,7.20
2022-08-31T17:59:46.643Z,6.40
2022-08-31T18:02:19.034Z,7.13
2022-08-31T18:04:46.377Z,5.73
2022-08-31T18:07:14.027Z,7.77
2022-08-31T18:09:45.339Z,6.73
2022-08-31T18:12:14.752Z,7.00
2022-08-31T18:14:42.933Z,8.07
2022-08-31T18:17:12.717Z,8.20
2022-08-31T18:19:40.523Z,8.40
2022-08-31T18:22:08.245Z,8.97
2022-08-31T18:24:37.955Z,8.90
2022-08-31T18:27:15.379Z,8.00
2022-08-31T18:29:44.249Z,9.47
2022-08-31T18:32:12.090Z,8.43
2022-08-31T18:34:47.006Z,8.83
2022-08-31T18:37:16.200Z,9.03
2022-08-31T18:40:06.473Z,9.43
2022-08-31T18:42:57.200Z,9.73
2022-08-31T18:45:30.725Z,9.60
2022-08-31T18:50:50.971Z,9.40
2022-08-31T18:53:28.432Z,8.90
2022-08-31T18:56:06.089Z,9.17
2022-08-31T18:58:33.127Z,9.90
2022-08-31T19:01:05.959Z,9.80
2022-08-31T19:03:34.104Z,9.80
2022-08-31T19:06:06.471Z,10.37
2022-08-31T19:08:35.237Z,9.47
2022-08-31T19:11:07.127Z,10.00
2022-08-31T19:13:34.386Z,9.47
2022-08-31T19:16:14.745Z,9.40
2022-08-31T19:18:44.044Z,9.40
2022-08-31T19:21:22.523Z,10.20
2022-08-31T19:23:51.749Z,9.77
2022-08-31T19:26:23.438Z,9.60
2022-08-31T19:28:51.059Z,10.20
2022-08-31T19:31:20.938Z,11.03
2022-08-31T19:33:49.463Z,11.10
2022-08-31T19:36:16.719Z,11.40
2022-08-31T19:38:47.780Z,11.00
2022-08-31T19:41:24.018Z,11.50
2022-08-31T19:43:56.148Z,10.77
2022-08-31T19:46:35.534Z,11.10
2022-08-31T19:49:03.105Z,11.03
2022-08-31T19:51:31.462Z,11.37
2022-08-31T19:54:00.870Z,10.00
2022-08-31T19:56:31.124Z,10.33
2022-08-31T19:59:00.083Z,11.00
2022-08-31T20:01:33.751Z,11.67
2022-08-31T20:04:08.119Z,11.13
2022-08-31T20:06:39.048Z,11.03
2022-08-31T20:09:07.822Z,10.70
2022-08-31T20:11:39.973Z,10.27
2022-08-31T20:14:08.224Z,10.60
2022-08-31T20:16:41.746Z,10.00
2022-08-31T20:19:13.988Z,10.13
2022-08-31T20:21:42.176Z,9.90
2022-08-31T20:24:13.775Z,9.33
2022-08-31T20:26:51.724Z,8.30
2022-08-31T20:29:20.467Z,8.80
2022-08-31T20:31:51.685Z,8.37
2022-08-31T20:34:22.062Z,8.53
2022-08-31T20:36:52.260Z,8.07
2022-08-31T20:39:20.326Z,8.87
2022-08-31T20:41:50.949Z,8.57
2022-08-31T20:44:26.086Z,8.63
2022-08-31T20:47:17.840Z,8.77
2022-08-31T20:49:53.740Z,8.67
2022-08-31T20:52:25.206Z,8.50
2022-08-31T20:55:01.804Z,8.07
2022-08-31T20:57:34.362Z,7.57
2022-08-31T21:00:07.098Z,8.27
2022-08-31T21:02:34.994Z,8.63
2022-08-31T21:07:57.907Z,7.47
2022-08-31T21:10:37.712Z,7.77
2022-08-31T21:13:07.909Z,8.07
2022-08-31T21:15:35.106Z,7.60
2022-08-31T21:18:02.074Z,8.20
2022-08-31T21:20:29.317Z,7.90
2022-08-31T21:22:56.370Z,7.80
2022-08-31T21:25:26.978Z,7.13
2022-08-31T21:27:54.046Z,7.60
2022-08-31T21:30:22.068Z,7.40
2022-08-31T21:32:51.107Z,8.40
2022-08-31T21:35:19.411Z,8.33
2022-08-31T21:37:46.510Z,8.30
2022-08-31T21:40:13.667Z,7.70
2022-08-31T21:42:40.680Z,7.20
2022-08-31T21:45:08.178Z,7.97
2022-08-31T21:47:35.169Z,7.27
2022-08-31T21:50:02.375Z,8.13
2022-08-31T21:52:30.601Z,7.03
2022-08-31T21:54:57.677Z,7.10
2022-08-31T21:57:25.630Z,7.10
2022-08-31T21:59:52.691Z,7.17
2022-08-31T22:02:19.770Z,8.17
2022-08-31T22:04:47.124Z,7.33
2022-08-31T22:07:16.222Z,7.30
2022-08-31T22:09:43.729Z,7.27
2022-08-31T22:12:15.043Z,7.67
2022-08-31T22:14:44.934Z,7.37
2022-08-31T22:17:13.010Z,7.70
2022-08-31T22:19:42.015Z,7.33
2022-08-31T22:22:12.485Z,8.73
2022-08-31T22:24:40.601Z,7.70
2022-08-31T22:27:11.194Z,8.20
2022-08-31T22:29:40.371Z,7.50
2022-08-31T22:32:13.824Z,8.00
2022-08-31T22:34:42.404Z,7.57
2022-08-31T22:37:11.274Z,7.60
2022-08-31T22:39:39.534Z,6.77
2022-08-31T22:42:07.826Z,7.87
2022-08-31T22:44:36.686Z,7.10
2022-08-31T22:47:04.365Z,7.03
2022-08-31T22:49:31.539Z,7.63
2022-08-31T22:51:59.722Z,7.40
2022-08-31T22:54:34.454Z,7.30
2022-08-31T22:57:01.652Z,7.40
2022-08-31T22:59:30.574Z,7.27
2022-08-31T23:02:03.350Z,7.00
2022-08-31T23:04:33.515Z,7.40
2022-08-31T23:07:01.530Z,7.53
2022-08-31T23:09:30.984Z,7.70
2022-08-31T23:12:01.856Z,6.90
2022-08-31T23:14:33.347Z,6.60
2022-08-31T23:17:06.982Z,7.27
2022-08-31T23:19:40.322Z,6.90
2022-08-31T23:22:11.171Z,6.73
2022-08-31T23:24:51.296Z,7.07
2022-08-31T23:27:21.662Z,6.20
2022-08-31T23:29:53.323Z,6.83
2022-08-31T23:32:27.722Z,6.53
2022-08-31T23:34:58.410Z,7.70
2022-08-31T23:37:27.834Z,6.33
2022-08-31T23:39:58.092Z,6.40
2022-08-31T23:42:28.405Z,7.40
2022-08-31T23:44:57.625Z,6.73
2022-08-31T23:47:29.218Z,6.87
2022-08-31T23:49:59.085Z,6.70
2022-08-31T23:52:29.653Z,6.73
2022-08-31T23:55:00.388Z,7.57
2022-08-31T23:57:32.615Z,6.43
